Time;durP1;ratioP1;P1;durP2;ratioP2;P2;SDS_P1;SDS_P2;PMS_P1;PMS_P2;Temp;Humidity;BMP_temperature;BMP_pressure;BME280_temperature;BME280_humidity;BME280_pressure;Samples;Min_cycle;Max_cycle;Signal;HPM_P1;HPM_P2
2023/09/11 00:01:51;;;;;;;0.30;0.30;;;;;;;;;;4953769;29;20387;-58
2023/09/11 00:04:18;;;;;;;0.20;0.17;;;;;;;;;;4953753;29;20047;-59
2023/09/11 00:06:45;;;;;;;0.90;0.33;;;;;;;;;;4951743;29;20043;-58
2023/09/11 00:09:11;;;;;;;0.60;0.40;;;;;;;;;;4948632;29;20027;-59
2023/09/11 00:11:38;;;;;;;0.60;0.30;;;;;;;;;;4949008;29;20035;-59
2023/09/11 00:14:05;;;;;;;0.20;0.20;;;;;;;;;;4948841;29;20035;-58
2023/09/11 00:16:31;;;;;;;0.30;0.30;;;;;;;;;;4950021;29;20027;-58
2023/09/11 00:18:58;;;;;;;1.00;0.43;;;;;;;;;;4954303;28;20463;-58
2023/09/11 00:21:25;;;;;;;0.87;0.30;;;;;;;;;;4957299;29;20046;-58
2023/09/11 00:23:51;;;;;;;0.30;0.27;;;;;;;;;;4956884;29;20050;-59
2023/09/11 00:26:18;;;;;;;1.03;0.40;;;;;;;;;;4957389;29;20524;-60
2023/09/11 00:28:44;;;;;;;0.13;0.13;;;;;;;;;;4955984;29;20549;-59
2023/09/11 00:31:11;;;;;;;0.90;0.50;;;;;;;;;;4955977;28;20111;-59
2023/09/11 00:33:38;;;;;;;0.30;0.30;;;;;;;;;;4958500;28;20541;-59
2023/09/11 00:36:04;;;;;;;0.27;0.27;;;;;;;;;;4971934;28;20035;-59
2023/09/11 00:38:31;;;;;;;0.50;0.37;;;;;;;;;;4972074;28;20038;-59
2023/09/11 00:40:58;;;;;;;0.10;0.10;;;;;;;;;;4975863;28;20027;-59
2023/09/11 00:43:24;;;;;;;0.37;0.37;;;;;;;;;;4976529;28;20045;-60
2023/09/11 00:45:51;;;;;;;0.30;0.30;;;;;;;;;;4956946;28;20038;-59
2023/09/11 00:48:18;;;;;;;0.27;0.20;;;;;;;;;;4956883;29;20035;-59
2023/09/11 00:50:45;;;;;;;0.60;0.50;;;;;;;;;;4956455;29;20039;-59
2023/09/11 00:53:12;;;;;;;2.97;1.10;;;;;;;;;;4952090;28;20126;-59
2023/09/11 00:55:40;;;;;;;1.20;0.77;;;;;;;;;;4969221;28;20019;-59
2023/09/11 00:58:06;;;;;;;0.60;0.50;;;;;;;;;;4960617;28;20437;-59
2023/09/11 01:00:33;;;;;;;2.37;1.17;;;;;;;;;;4951565;29;20126;-59
2023/09/11 01:03:00;;;;;;;0.97;0.60;;;;;;;;;;4956372;29;20479;-59
2023/09/11 01:05:28;;;;;;;5.63;0.70;;;;;;;;;;4956496;29;20035;-59
2023/09/11 01:07:55;;;;;;;0.50;0.40;;;;;;;;;;4956476;29;20422;-59
2023/09/11 01:10:22;;;;;;;1.50;0.80;;;;;;;;;;4956864;29;20128;-59
2023/09/11 01:12:49;;;;;;;3.70;0.83;;;;;;;;;;4956556;28;20040;-59
2023/09/11 01:15:15;;;;;;;0.50;0.40;;;;;;;;;;4951862;29;20028;-58
2023/09/11 01:17:45;;;;;;;1.00;0.53;;;;;;;;;;4951310;29;20497;-59
2023/09/11 01:20:32;;;;;;;11.73;0.90;;;;;;;;;;4951503;29;20402;-59
2023/09/11 01:23:14;;;;;;;3.03;1.33;;;;;;;;;;4951483;29;20042;-59
2023/09/11 01:25:40;;;;;;;0.80;0.57;;;;;;;;;;4956166;29;20041;-59
2023/09/11 01:28:32;;;;;;;1.10;0.33;;;;;;;;;;4955780;29;20023;-59
2023/09/11 01:30:59;;;;;;;0.53;0.40;;;;;;;;;;4955713;28;20070;-59
2023/09/11 01:33:26;;;;;;;0.53;0.50;;;;;;;;;;4955806;29;20031;-59
2023/09/11 01:35:52;;;;;;;1.53;0.90;;;;;;;;;;4952615;29;20122;-59
2023/09/11 01:38:19;;;;;;;1.53;0.63;;;;;;;;;;4948412;29;20016;-58
2023/09/11 01:40:48;;;;;;;0.33;0.33;;;;;;;;;;4949519;29;20059;-58
2023/09/11 01:43:16;;;;;;;0.87;0.60;;;;;;;;;;4948937;29;20026;-58
2023/09/11 01:45:42;;;;;;;0.53;0.37;;;;;;;;;;4949481;29;20539;-59
2023/09/11 01:48:09;;;;;;;0.60;0.60;;;;;;;;;;4955739;29;20043;-59
2023/09/11 01:50:37;;;;;;;1.53;0.70;;;;;;;;;;4955835;29;20020;-60
2023/09/11 01:53:06;;;;;;;1.83;0.67;;;;;;;;;;4955358;29;20031;-59
2023/09/11 01:55:34;;;;;;;0.97;0.63;;;;;;;;;;4955242;29;20430;-59
2023/09/11 01:58:00;;;;;;;1.23;0.73;;;;;;;;;;4955429;29;20019;-58
2023/09/11 02:00:27;;;;;;;0.83;0.50;;;;;;;;;;4950227;29;20494;-59
2023/09/11 02:02:55;;;;;;;0.77;0.63;;;;;;;;;;4949561;28;20058;-59
2023/09/11 02:05:22;;;;;;;0.87;0.50;;;;;;;;;;4950005;29;20075;-58
2023/09/11 02:07:49;;;;;;;0.60;0.60;;;;;;;;;;4950231;29;20035;-59
2023/09/11 02:10:15;;;;;;;0.97;0.67;;;;;;;;;;4939367;29;20027;-59
2023/09/11 02:12:42;;;;;;;0.83;0.57;;;;;;;;;;4955036;29;20517;-58
2023/09/11 02:15:09;;;;;;;1.10;0.70;;;;;;;;;;4955323;29;20388;-59
2023/09/11 02:17:36;;;;;;;0.90;0.70;;;;;;;;;;4955303;29;20346;-59
2023/09/11 02:20:04;;;;;;;2.70;1.23;;;;;;;;;;4955296;29;20514;-59
2023/09/11 02:22:30;;;;;;;1.00;0.60;;;;;;;;;;4950268;29;20031;-58
2023/09/11 02:24:57;;;;;;;0.93;0.60;;;;;;;;;;4950261;29;20036;-59
2023/09/11 02:27:24;;;;;;;2.37;1.07;;;;;;;;;;4950273;28;20042;-59
2023/09/11 02:29:50;;;;;;;0.60;0.60;;;;;;;;;;4949639;29;20040;-59
2023/09/11 02:32:17;;;;;;;1.20;0.80;;;;;;;;;;4953799;29;20027;-59
2023/09/11 02:34:44;;;;;;;0.67;0.47;;;;;;;;;;4954779;29;20032;-59
2023/09/11 02:37:10;;;;;;;1.00;0.70;;;;;;;;;;4954979;29;20035;-58
2023/09/11 02:39:38;;;;;;;2.83;0.60;;;;;;;;;;4954879;29;20027;-59
2023/09/11 02:42:05;;;;;;;0.40;0.40;;;;;;;;;;4954171;28;20086;-58
2023/09/11 02:44:32;;;;;;;0.77;0.50;;;;;;;;;;4950754;28;20126;-58
2023/09/11 02:47:00;;;;;;;2.40;0.70;;;;;;;;;;4950172;29;20030;-59
2023/09/11 02:49:26;;;;;;;0.80;0.70;;;;;;;;;;4949272;29;20034;-58
2023/09/11 02:51:53;;;;;;;0.57;0.40;;;;;;;;;;4949974;29;20502;-58
2023/09/11 02:54:20;;;;;;;0.67;0.53;;;;;;;;;;4952573;29;20091;-58
2023/09/11 02:56:46;;;;;;;2.73;0.77;;;;;;;;;;4954586;28;20114;-59
2023/09/11 02:59:13;;;;;;;0.70;0.60;;;;;;;;;;4954401;29;20031;-59
2023/09/11 03:01:40;;;;;;;0.70;0.60;;;;;;;;;;4954602;29;20423;-58
2023/09/11 03:04:07;;;;;;;0.93;0.60;;;;;;;;;;4954539;29;20098;-58
2023/09/11 03:06:34;;;;;;;2.87;0.53;;;;;;;;;;4951247;29;20031;-59
2023/09/11 03:09:00;;;;;;;4.80;1.20;;;;;;;;;;4938621;29;20047;-58
2023/09/11 03:11:27;;;;;;;1.43;1.00;;;;;;;;;;4949086;28;20094;-58
2023/09/11 03:13:54;;;;;;;0.50;0.50;;;;;;;;;;4949276;28;20037;-60
2023/09/11 03:16:20;;;;;;;0.50;0.37;;;;;;;;;;4951617;29;20386;-58
2023/09/11 03:18:47;;;;;;;1.43;0.80;;;;;;;;;;4954070;29;20364;-58
2023/09/11 03:21:14;;;;;;;1.23;0.93;;;;;;;;;;4954200;29;20031;-58
2023/09/11 03:23:40;;;;;;;0.60;0.50;;;;;;;;;;4953787;29;20030;-59
2023/09/11 03:26:13;;;;;;;1.60;1.00;;;;;;;;;;4953408;29;20027;-58
2023/09/11 03:28:40;;;;;;;1.00;0.70;;;;;;;;;;4957871;28;20043;-59
2023/09/11 03:31:07;;;;;;;3.30;0.93;;;;;;;;;;4950410;28;20046;-59
2023/09/11 03:33:33;;;;;;;0.70;0.70;;;;;;;;;;4967756;28;20026;-59
2023/09/11 03:36:00;;;;;;;1.23;0.47;;;;;;;;;;4949045;29;20091;-58
2023/09/11 03:38:26;;;;;;;2.03;1.30;;;;;;;;;;4951123;29;20038;-58
2023/09/11 03:40:53;;;;;;;2.83;1.30;;;;;;;;;;4953563;29;20027;-58
2023/09/11 03:43:20;;;;;;;2.37;1.60;;;;;;;;;;4953663;29;20478;-58
2023/09/11 03:45:47;;;;;;;9.43;1.03;;;;;;;;;;4953541;29;20027;-58
2023/09/11 03:48:14;;;;;;;3.80;1.97;;;;;;;;;;4954125;28;20182;-58
2023/09/11 03:50:40;;;;;;;2.37;1.47;;;;;;;;;;4952091;29;20663;-59
2023/09/11 03:53:07;;;;;;;3.77;1.13;;;;;;;;;;4950195;28;20027;-59
2023/09/11 03:55:33;;;;;;;2.80;1.67;;;;;;;;;;4955523;28;20032;-59
2023/09/11 03:58:00;;;;;;;22.83;2.10;;;;;;;;;;4954915;28;20114;-59
2023/09/11 04:00:27;;;;;;;3.23;2.17;;;;;;;;;;4955673;28;20079;-58
2023/09/11 04:02:53;;;;;;;16.47;2.13;;;;;;;;;;4960306;29;20030;-59
2023/09/11 04:05:20;;;;;;;8.17;2.43;;;;;;;;;;4960167;29;20544;-58
2023/09/11 04:07:46;;;;;;;3.43;1.70;;;;;;;;;;4959758;28;20026;-58
2023/09/11 04:10:16;;;;;;;3.40;1.60;;;;;;;;;;4960314;29;20106;-58
2023/09/11 04:12:43;;;;;;;10.60;2.33;;;;;;;;;;4958888;29;20139;-59
2023/09/11 04:15:09;;;;;;;16.87;2.00;;;;;;;;;;4955148;28;20034;-59
2023/09/11 04:17:36;;;;;;;2.83;2.00;;;;;;;;;;4955009;29;20027;-58
2023/09/11 04:20:03;;;;;;;3.93;1.60;;;;;;;;;;4955102;28;20031;-58
2023/09/11 04:22:30;;;;;;;2.60;1.53;;;;;;;;;;4954891;28;20027;-58
2023/09/11 04:24:56;;;;;;;5.30;1.97;;;;;;;;;;4959798;29;20038;-59
2023/09/11 04:27:23;;;;;;;4.07;2.00;;;;;;;;;;4960099;29;20027;-58
2023/09/11 04:29:49;;;;;;;2.40;1.40;;;;;;;;;;4960070;28;20110;-58
2023/09/11 04:32:18;;;;;;;3.33;1.33;;;;;;;;;;4960216;29;20031;-59
2023/09/11 04:34:44;;;;;;;5.03;1.90;;;;;;;;;;4959736;28;20042;-58
2023/09/11 04:37:11;;;;;;;4.13;2.10;;;;;;;;;;4952817;28;20026;-59
2023/09/11 04:39:38;;;;;;;40.03;2.67;;;;;;;;;;4955114;28;20546;-58
2023/09/11 04:42:05;;;;;;;2.03;1.20;;;;;;;;;;4955029;28;20059;-58
2023/09/11 04:44:31;;;;;;;15.63;2.13;;;;;;;;;;4955058;28;20030;-58
2023/09/11 04:46:58;;;;;;;8.93;1.23;;;;;;;;;;4959443;29;20416;-59
2023/09/11 04:49:25;;;;;;;2.27;1.53;;;;;;;;;;4960005;28;20041;-59
2023/09/11 04:51:53;;;;;;;2.47;1.57;;;;;;;;;;4960071;28;20043;-58
2023/09/11 04:54:19;;;;;;;1.90;1.47;;;;;;;;;;4959482;28;20027;-59
2023/09/11 04:56:46;;;;;;;3.57;1.97;;;;;;;;;;4960309;29;20352;-58
2023/09/11 04:59:13;;;;;;;2.57;1.60;;;;;;;;;;4955160;29;20027;-59
2023/09/11 05:01:39;;;;;;;3.17;2.33;;;;;;;;;;4954997;28;20118;-57
2023/09/11 05:04:06;;;;;;;7.47;2.87;;;;;;;;;;4954135;28;20027;-57
2023/09/11 05:06:33;;;;;;;1.80;1.60;;;;;;;;;;4951686;29;20075;-56
2023/09/11 05:09:00;;;;;;;3.13;2.10;;;;;;;;;;4955595;29;20030;-56
2023/09/11 05:11:27;;;;;;;3.13;1.90;;;;;;;;;;4955910;28;20065;-56
2023/09/11 05:13:53;;;;;;;2.10;1.53;;;;;;;;;;4955050;28;20097;-56
2023/09/11 05:16:20;;;;;;;2.50;1.90;;;;;;;;;;4955853;29;20101;-56
2023/09/11 05:18:47;;;;;;;2.00;1.63;;;;;;;;;;4948990;29;20035;-56
2023/09/11 05:21:14;;;;;;;3.07;2.27;;;;;;;;;;4952678;29;20541;-56
2023/09/11 05:23:42;;;;;;;2.77;2.00;;;;;;;;;;4951496;29;20109;-56
2023/09/11 05:26:09;;;;;;;2.63;1.83;;;;;;;;;;4951487;28;20043;-56
2023/09/11 05:28:36;;;;;;;1.30;1.07;;;;;;;;;;4951261;28;20352;-56
2023/09/11 05:31:05;;;;;;;10.23;2.30;;;;;;;;;;4954026;29;20035;-56
2023/09/11 05:33:31;;;;;;;5.07;2.03;;;;;;;;;;4955449;29;20042;-57
2023/09/11 05:35:58;;;;;;;2.50;1.70;;;;;;;;;;4955714;29;20475;-55
2023/09/11 05:38:24;;;;;;;3.03;1.90;;;;;;;;;;4953383;29;20032;-56
2023/09/11 05:40:51;;;;;;;4.00;2.30;;;;;;;;;;4937248;28;20063;-56
2023/09/11 05:43:18;;;;;;;2.97;2.10;;;;;;;;;;4951434;29;20027;-56
2023/09/11 05:45:44;;;;;;;3.07;1.80;;;;;;;;;;4958268;28;20027;-56
2023/09/11 05:48:12;;;;;;;2.27;1.60;;;;;;;;;;4949304;28;20023;-56
2023/09/11 05:50:39;;;;;;;3.97;2.07;;;;;;;;;;4950196;28;20047;-56
2023/09/11 05:53:12;;;;;;;3.27;2.50;;;;;;;;;;4953045;29;20058;-56
2023/09/11 05:55:39;;;;;;;13.93;2.30;;;;;;;;;;4955624;29;20479;-56
2023/09/11 05:58:06;;;;;;;1.63;1.27;;;;;;;;;;4955675;29;20039;-57
2023/09/11 06:00:32;;;;;;;5.10;2.70;;;;;;;;;;4955525;29;20043;-57
2023/09/11 06:02:59;;;;;;;1.47;1.30;;;;;;;;;;4955172;29;20122;-56
2023/09/11 06:05:26;;;;;;;2.83;2.10;;;;;;;;;;4953014;29;20035;-56
2023/09/11 06:07:52;;;;;;;2.03;1.50;;;;;;;;;;4950415;28;20514;-56
2023/09/11 06:10:19;;;;;;;4.10;2.07;;;;;;;;;;4950407;29;20475;-56
2023/09/11 06:12:46;;;;;;;3.00;2.07;;;;;;;;;;4949788;29;20058;-57
2023/09/11 06:15:16;;;;;;;3.73;2.53;;;;;;;;;;4952262;29;20023;-56
2023/09/11 06:17:42;;;;;;;5.40;1.80;;;;;;;;;;4954300;28;20035;-56
2023/09/11 06:20:09;;;;;;;4.37;2.33;;;;;;;;;;4955375;29;20027;-56
2023/09/11 06:22:39;;;;;;;8.63;3.20;;;;;;;;;;4954596;28;20039;-57
2023/09/11 06:25:06;;;;;;;6.77;3.00;;;;;;;;;;4954902;29;20039;-56
2023/09/11 06:27:34;;;;;;;4.20;3.03;;;;;;;;;;4952853;29;20046;-56
2023/09/11 06:30:05;;;;;;;5.50;3.17;;;;;;;;;;4950271;28;20106;-56
2023/09/11 06:32:32;;;;;;;2.93;2.27;;;;;;;;;;4949385;28;20038;-56
2023/09/11 06:35:00;;;;;;;4.47;3.00;;;;;;;;;;4950083;29;20032;-57
2023/09/11 06:37:30;;;;;;;5.03;3.00;;;;;;;;;;4950911;28;20036;-56
2023/09/11 06:39:57;;;;;;;5.80;2.83;;;;;;;;;;4954745;29;20086;-56
2023/09/11 06:42:24;;;;;;;4.50;3.10;;;;;;;;;;4954814;29;20431;-57
2023/09/11 06:44:52;;;;;;;3.97;2.87;;;;;;;;;;4955392;28;20035;-56
2023/09/11 06:47:19;;;;;;;2.97;2.43;;;;;;;;;;4965052;28;20125;-57
2023/09/11 06:49:46;;;;;;;4.43;3.10;;;;;;;;;;4953365;29;20061;-56
2023/09/11 06:52:12;;;;;;;3.67;2.80;;;;;;;;;;4949084;29;20113;-56
2023/09/11 06:54:39;;;;;;;4.87;3.17;;;;;;;;;;4949235;29;20562;-56
2023/09/11 06:57:06;;;;;;;3.23;2.70;;;;;;;;;;4949910;29;20302;-57
2023/09/11 06:59:36;;;;;;;3.80;2.80;;;;;;;;;;4931031;29;20040;-57
2023/09/11 07:02:03;;;;;;;4.83;2.70;;;;;;;;;;4944540;29;20042;-56
2023/09/11 07:04:31;;;;;;;5.07;3.73;;;;;;;;;;4954334;29;20035;-56
2023/09/11 07:06:58;;;;;;;5.70;2.87;;;;;;;;;;4954546;29;20070;-57
2023/09/11 07:09:24;;;;;;;3.80;3.00;;;;;;;;;;4953766;28;20110;-56
2023/09/11 07:11:51;;;;;;;4.37;3.30;;;;;;;;;;4952655;29;20146;-57
2023/09/11 07:14:21;;;;;;;3.03;2.57;;;;;;;;;;4949260;29;20483;-57
2023/09/11 07:16:48;;;;;;;5.60;3.50;;;;;;;;;;4949239;29;20031;-56
2023/09/11 07:19:14;;;;;;;4.47;2.87;;;;;;;;;;4949365;29;20035;-56
2023/09/11 07:21:41;;;;;;;3.03;1.80;;;;;;;;;;4949636;29;20094;-56
2023/09/11 07:24:08;;;;;;;3.50;2.73;;;;;;;;;;4954019;29;20037;-56
2023/09/11 07:26:35;;;;;;;2.83;2.33;;;;;;;;;;4954124;29;20102;-57
2023/09/11 07:29:02;;;;;;;2.53;1.93;;;;;;;;;;4953101;28;20023;-56
2023/09/11 07:31:29;;;;;;;3.10;2.27;;;;;;;;;;4954150;29;20078;-56
2023/09/11 07:33:56;;;;;;;3.97;3.00;;;;;;;;;;4953437;29;20046;-56
2023/09/11 07:36:23;;;;;;;2.90;2.37;;;;;;;;;;4949078;29;20035;-56
2023/09/11 07:38:50;;;;;;;5.33;3.27;;;;;;;;;;4949106;29;20027;-56
2023/09/11 07:41:17;;;;;;;3.00;2.57;;;;;;;;;;4948963;29;20031;-56
2023/09/11 07:43:51;;;;;;;4.27;2.83;;;;;;;;;;4948705;28;20070;-56
2023/09/11 07:46:19;;;;;;;6.43;3.20;;;;;;;;;;4957391;28;20046;-57
2023/09/11 07:48:46;;;;;;;3.40;2.30;;;;;;;;;;4954003;28;20034;-56
2023/09/11 07:51:13;;;;;;;10.00;3.07;;;;;;;;;;4951154;28;20082;-56
2023/09/11 07:53:40;;;;;;;4.40;2.97;;;;;;;;;;4932983;29;20058;-56
2023/09/11 07:56:07;;;;;;;3.23;2.67;;;;;;;;;;4951046;29;20035;-56
2023/09/11 07:58:35;;;;;;;6.77;3.63;;;;;;;;;;4947596;29;20471;-57
2023/09/11 08:01:02;;;;;;;5.23;2.97;;;;;;;;;;4947732;29;20110;-56
2023/09/11 08:03:29;;;;;;;3.37;2.77;;;;;;;;;;4947612;29;20359;-57
2023/09/11 08:05:55;;;;;;;7.23;3.00;;;;;;;;;;4947778;29;20042;-56
2023/09/11 08:08:22;;;;;;;3.43;2.63;;;;;;;;;;4952437;29;20031;-56
2023/09/11 08:10:49;;;;;;;5.90;3.47;;;;;;;;;;4953705;29;20023;-56
2023/09/11 08:13:15;;;;;;;4.17;2.90;;;;;;;;;;4944848;29;20028;-56
2023/09/11 08:15:42;;;;;;;4.50;3.50;;;;;;;;;;4953388;29;20023;-56
2023/09/11 08:18:09;;;;;;;4.17;2.80;;;;;;;;;;4953402;29;20054;-56
2023/09/11 08:20:36;;;;;;;5.70;3.60;;;;;;;;;;4949170;29;20053;-56
2023/09/11 08:23:03;;;;;;;2.37;1.77;;;;;;;;;;4948175;29;20078;-57
2023/09/11 08:25:30;;;;;;;5.00;3.33;;;;;;;;;;4948530;28;20073;-56
2023/09/11 08:27:57;;;;;;;3.83;2.73;;;;;;;;;;4948137;29;20132;-56
2023/09/11 08:30:23;;;;;;;12.07;2.90;;;;;;;;;;4952076;29;20118;-56
2023/09/11 08:32:50;;;;;;;5.53;3.77;;;;;;;;;;4953334;29;20050;-56
2023/09/11 08:35:17;;;;;;;3.03;2.43;;;;;;;;;;4953596;28;20085;-56
2023/09/11 08:37:43;;;;;;;4.07;2.93;;;;;;;;;;4953262;29;20027;-56
2023/09/11 08:40:10;;;;;;;11.00;4.03;;;;;;;;;;4954348;28;20399;-56
2023/09/11 08:42:37;;;;;;;5.17;3.07;;;;;;;;;;4953283;29;20097;-57
2023/09/11 08:45:04;;;;;;;3.53;2.63;;;;;;;;;;4952073;29;20391;-56
2023/09/11 08:47:31;;;;;;;5.53;2.83;;;;;;;;;;4952091;29;20031;-57
2023/09/11 08:50:05;;;;;;;3.47;2.60;;;;;;;;;;4951939;29;20502;-56
2023/09/11 08:52:34;;;;;;;4.03;2.83;;;;;;;;;;4954550;29;20055;-55
2023/09/11 08:55:03;;;;;;;4.27;2.80;;;;;;;;;;4956612;29;20125;-56
2023/09/11 08:57:33;;;;;;;3.50;2.50;;;;;;;;;;4956912;29;20153;-56
2023/09/11 09:00:04;;;;;;;5.53;3.30;;;;;;;;;;4956260;29;20066;-56
2023/09/11 09:02:33;;;;;;;5.20;3.20;;;;;;;;;;4956616;28;20042;-57
2023/09/11 09:05:03;;;;;;;2.70;2.10;;;;;;;;;;4952865;28;20043;-56
2023/09/11 09:07:31;;;;;;;3.97;2.87;;;;;;;;;;4951422;29;20120;-57
2023/09/11 09:09:58;;;;;;;3.77;2.77;;;;;;;;;;4951202;29;20038;-56
2023/09/11 09:12:27;;;;;;;5.73;3.27;;;;;;;;;;4951478;29;20050;-56
2023/09/11 09:14:54;;;;;;;3.10;2.77;;;;;;;;;;4953908;29;20024;-57
2023/09/11 09:17:21;;;;;;;4.97;2.37;;;;;;;;;;4956312;29;20035;-56
2023/09/11 09:19:47;;;;;;;5.27;3.00;;;;;;;;;;4956300;29;20030;-56
2023/09/11 09:22:14;;;;;;;3.20;2.40;;;;;;;;;;4956173;29;20030;-56
2023/09/11 09:24:48;;;;;;;7.63;2.87;;;;;;;;;;4956168;29;20082;-56
2023/09/11 09:27:15;;;;;;;2.33;1.80;;;;;;;;;;4952705;29;20031;-56
2023/09/11 09:29:41;;;;;;;3.77;2.63;;;;;;;;;;4950899;28;20788;-56
2023/09/11 09:32:09;;;;;;;2.97;2.27;;;;;;;;;;4950513;29;20075;-56
2023/09/11 09:34:36;;;;;;;2.87;2.33;;;;;;;;;;4951004;29;20031;-56
2023/09/11 09:37:03;;;;;;;2.60;2.07;;;;;;;;;;4953051;29;20027;-56
2023/09/11 09:39:33;;;;;;;3.80;2.77;;;;;;;;;;4956073;29;20031;-56
2023/09/11 09:42:07;;;;;;;5.70;3.37;;;;;;;;;;4955959;28;20037;-56
2023/09/11 09:44:45;;;;;;;4.13;2.55;;;;;;;;;;4956187;28;20086;-57
2023/09/11 09:47:17;;;;;;;3.37;2.30;;;;;;;;;;4955926;29;20506;-56
2023/09/11 09:49:44;;;;;;;11.53;3.40;;;;;;;;;;4952442;29;20067;-57
2023/09/11 09:52:11;;;;;;;3.43;2.63;;;;;;;;;;4950085;28;20127;-56
2023/09/11 09:54:51;;;;;;;2.87;2.43;;;;;;;;;;4950674;28;20034;-56
2023/09/11 09:57:19;;;;;;;3.53;2.37;;;;;;;;;;4950260;29;20031;-56
2023/09/11 09:59:50;;;;;;;3.83;2.63;;;;;;;;;;4953205;29;20059;-56
2023/09/11 10:02:23;;;;;;;4.37;2.67;;;;;;;;;;4969046;28;20110;-56
2023/09/11 10:04:54;;;;;;;3.40;2.47;;;;;;;;;;4974939;28;20117;-56
2023/09/11 10:07:37;;;;;;;3.33;2.40;;;;;;;;;;4968330;28;20027;-56
2023/09/11 10:10:22;;;;;;;3.13;2.23;;;;;;;;;;4955684;28;20360;-56
2023/09/11 10:12:53;;;;;;;2.97;2.20;;;;;;;;;;4950666;28;20171;-56
2023/09/11 10:15:22;;;;;;;3.13;2.37;;;;;;;;;;4950190;29;20066;-56
2023/09/11 10:17:51;;;;;;;2.57;1.87;;;;;;;;;;4949923;28;20023;-56
2023/09/11 10:20:18;;;;;;;3.40;2.30;;;;;;;;;;4950445;29;20031;-56
2023/09/11 10:22:44;;;;;;;3.43;2.53;;;;;;;;;;4954051;29;20151;-56
2023/09/11 10:25:11;;;;;;;4.83;3.33;;;;;;;;;;4955286;29;20035;-56
2023/09/11 10:27:38;;;;;;;3.80;2.30;;;;;;;;;;4955201;29;20027;-56
2023/09/11 10:30:05;;;;;;;3.30;2.37;;;;;;;;;;4955095;29;20035;-56
2023/09/11 10:32:39;;;;;;;4.03;2.93;;;;;;;;;;4954656;29;20027;-56
2023/09/11 10:35:06;;;;;;;2.57;1.97;;;;;;;;;;4950556;29;20037;-56
2023/09/11 10:37:34;;;;;;;3.60;2.50;;;;;;;;;;4949667;29;20451;-56
2023/09/11 10:40:03;;;;;;;3.27;2.43;;;;;;;;;;4949896;29;20035;-55
2023/09/11 10:42:30;;;;;;;3.93;3.00;;;;;;;;;;4949425;29;20034;-56
2023/09/11 10:44:56;;;;;;;19.53;2.53;;;;;;;;;;4953995;29;20027;-56
2023/09/11 10:47:23;;;;;;;8.90;3.23;;;;;;;;;;4953993;29;20103;-56
2023/09/11 10:49:50;;;;;;;2.90;2.30;;;;;;;;;;4954889;29;20041;-56
2023/09/11 10:52:17;;;;;;;4.17;3.03;;;;;;;;;;4954852;29;20035;-56
2023/09/11 10:54:44;;;;;;;4.17;3.00;;;;;;;;;;4954440;29;20035;-56
2023/09/11 10:57:12;;;;;;;3.37;2.33;;;;;;;;;;4950485;29;20039;-56
2023/09/11 10:59:39;;;;;;;3.37;2.53;;;;;;;;;;4949604;29;20031;-56
2023/09/11 11:02:06;;;;;;;5.17;3.53;;;;;;;;;;4949063;28;20043;-56
2023/09/11 11:04:33;;;;;;;3.83;2.87;;;;;;;;;;4948883;29;20069;-56
2023/09/11 11:07:00;;;;;;;3.27;2.77;;;;;;;;;;4952233;29;20513;-56
2023/09/11 11:09:30;;;;;;;5.03;3.37;;;;;;;;;;4954523;29;20050;-56
2023/09/11 11:11:58;;;;;;;3.80;2.90;;;;;;;;;;4954279;29;20039;-56
2023/09/11 11:14:24;;;;;;;3.87;2.60;;;;;;;;;;4954562;29;20046;-56
2023/09/11 11:17:12;;;;;;;3.53;2.67;;;;;;;;;;4953737;28;21586;-57
2023/09/11 11:19:52;;;;;;;2.87;2.27;;;;;;;;;;4950372;29;20031;-56
2023/09/11 11:22:32;;;;;;;3.33;2.50;;;;;;;;;;4948966;29;20063;-56
2023/09/11 11:25:00;;;;;;;3.40;2.73;;;;;;;;;;4949291;29;20118;-56
2023/09/11 11:27:27;;;;;;;2.60;2.00;;;;;;;;;;4948163;28;20039;-57
2023/09/11 11:29:54;;;;;;;4.40;2.13;;;;;;;;;;4953306;29;20078;-56
2023/09/11 11:32:21;;;;;;;1.97;1.47;;;;;;;;;;4953951;29;20059;-56
2023/09/11 11:34:50;;;;;;;4.73;2.17;;;;;;;;;;4954015;29;20035;-55
2023/09/11 11:37:20;;;;;;;3.70;2.80;;;;;;;;;;4953658;28;20086;-56
2023/09/11 11:39:47;;;;;;;3.97;1.83;;;;;;;;;;4953608;29;20479;-56
2023/09/11 11:42:14;;;;;;;2.77;1.90;;;;;;;;;;4949336;29;20031;-56
2023/09/11 11:44:41;;;;;;;1.97;1.50;;;;;;;;;;4948761;28;20054;-56
2023/09/11 11:47:08;;;;;;;5.77;1.87;;;;;;;;;;4948671;29;20090;-56
2023/09/11 11:49:37;;;;;;;2.33;1.80;;;;;;;;;;4948573;29;20475;-56
2023/09/11 11:52:05;;;;;;;3.00;1.60;;;;;;;;;;4952351;29;20031;-56
2023/09/11 11:54:33;;;;;;;1.63;1.33;;;;;;;;;;4953499;29;20027;-56
2023/09/11 11:57:01;;;;;;;2.43;1.67;;;;;;;;;;4958211;28;20027;-56
2023/09/11 11:59:34;;;;;;;1.60;1.13;;;;;;;;;;4953396;29;20023;-56
2023/09/11 12:02:01;;;;;;;3.47;2.00;;;;;;;;;;4953856;29;20065;-56
2023/09/11 12:04:28;;;;;;;3.13;1.83;;;;;;;;;;4949457;29;20031;-56
2023/09/11 12:06:56;;;;;;;1.20;1.00;;;;;;;;;;4948593;28;20066;-58
2023/09/11 12:09:22;;;;;;;4.07;1.63;;;;;;;;;;4948383;29;20170;-56
2023/09/11 12:11:49;;;;;;;1.97;1.37;;;;;;;;;;4948435;28;20391;-56
2023/09/11 12:14:17;;;;;;;1.63;1.33;;;;;;;;;;4953502;28;20026;-55
2023/09/11 12:16:45;;;;;;;20.00;1.83;;;;;;;;;;4957451;29;20040;-56
2023/09/11 12:19:12;;;;;;;2.80;1.77;;;;;;;;;;4957555;28;20043;-56
2023/09/11 12:21:38;;;;;;;3.03;1.63;;;;;;;;;;4957187;29;20031;-56
2023/09/11 12:24:08;;;;;;;3.57;1.87;;;;;;;;;;4957646;29;20491;-56
2023/09/11 12:26:36;;;;;;;1.57;1.30;;;;;;;;;;4953065;29;20410;-56
2023/09/11 12:29:03;;;;;;;3.03;1.50;;;;;;;;;;4952496;29;20161;-55
2023/09/11 12:31:31;;;;;;;1.50;1.33;;;;;;;;;;4951750;28;20039;-56
2023/09/11 12:34:00;;;;;;;2.63;1.93;;;;;;;;;;4952191;29;20045;-56
2023/09/11 12:36:28;;;;;;;2.77;1.60;;;;;;;;;;4954573;29;20562;-56
2023/09/11 12:38:54;;;;;;;1.50;1.17;;;;;;;;;;4957006;29;20027;-56
2023/09/11 12:41:21;;;;;;;1.87;1.43;;;;;;;;;;4957010;29;20067;-56
2023/09/11 12:43:48;;;;;;;4.70;1.63;;;;;;;;;;4956734;29;20094;-56
2023/09/11 12:46:15;;;;;;;3.63;2.00;;;;;;;;;;4956855;29;20034;-56
2023/09/11 12:48:43;;;;;;;1.57;1.20;;;;;;;;;;4953559;29;20035;-56
2023/09/11 12:51:10;;;;;;;5.27;2.03;;;;;;;;;;4951758;29;20554;-56
2023/09/11 12:53:36;;;;;;;3.80;2.43;;;;;;;;;;4951630;29;20061;-56
2023/09/11 12:56:03;;;;;;;3.70;2.33;;;;;;;;;;4951697;29;20506;-56
2023/09/11 12:58:29;;;;;;;10.67;1.90;;;;;;;;;;4953726;29;20027;-56
2023/09/11 13:00:58;;;;;;;1.50;1.30;;;;;;;;;;4956622;28;20074;-56
2023/09/11 13:03:24;;;;;;;2.10;1.67;;;;;;;;;;4956703;28;20490;-55
2023/09/11 13:05:51;;;;;;;2.10;1.43;;;;;;;;;;4956255;29;20027;-55
2023/09/11 13:08:18;;;;;;;2.67;1.83;;;;;;;;;;4956329;29;20028;-56
2023/09/11 13:10:44;;;;;;;3.23;1.53;;;;;;;;;;4954349;29;20027;-56
2023/09/11 13:13:11;;;;;;;14.27;2.47;;;;;;;;;;4951302;29;20067;-56
2023/09/11 13:15:38;;;;;;;3.40;2.17;;;;;;;;;;4951018;29;20019;-57
2023/09/11 13:18:04;;;;;;;2.33;1.67;;;;;;;;;;4951074;29;20031;-56
2023/09/11 13:20:31;;;;;;;2.20;1.70;;;;;;;;;;4953123;29;20491;-56
2023/09/11 13:22:58;;;;;;;3.03;2.23;;;;;;;;;;4955772;28;20038;-56
2023/09/11 13:25:24;;;;;;;4.40;2.80;;;;;;;;;;4955654;28;20089;-57
2023/09/11 13:27:51;;;;;;;7.67;3.27;;;;;;;;;;4956169;29;20496;-56
2023/09/11 13:30:18;;;;;;;3.13;2.40;;;;;;;;;;4955762;28;20031;-56
2023/09/11 13:32:44;;;;;;;3.30;2.00;;;;;;;;;;4954388;29;20043;-56
2023/09/11 13:35:11;;;;;;;2.90;2.23;;;;;;;;;;4951019;29;20038;-56
2023/09/11 13:37:38;;;;;;;4.10;1.90;;;;;;;;;;4951125;29;20118;-56
2023/09/11 13:40:06;;;;;;;2.60;1.50;;;;;;;;;;4951054;28;20028;-56
2023/09/11 13:42:33;;;;;;;1.87;1.43;;;;;;;;;;4951597;29;20102;-56
2023/09/11 13:45:00;;;;;;;1.50;1.03;;;;;;;;;;4955928;29;20439;-56
2023/09/11 13:47:27;;;;;;;1.47;0.87;;;;;;;;;;4955764;29;20498;-56
2023/09/11 13:49:53;;;;;;;2.60;1.60;;;;;;;;;;4956099;28;20047;-56
2023/09/11 13:52:20;;;;;;;1.77;1.30;;;;;;;;;;4954723;29;20479;-55
2023/09/11 13:54:47;;;;;;;1.10;1.00;;;;;;;;;;4954628;28;20039;-56
2023/09/11 13:57:14;;;;;;;2.47;1.63;;;;;;;;;;4950622;29;20027;-56
2023/09/11 13:59:40;;;;;;;2.17;1.03;;;;;;;;;;4950424;29;20047;-56
2023/09/11 14:02:07;;;;;;;2.53;1.50;;;;;;;;;;4950424;29;20066;-56
2023/09/11 14:04:34;;;;;;;2.23;1.20;;;;;;;;;;4950731;29;20482;-56
2023/09/11 14:07:01;;;;;;;1.40;0.93;;;;;;;;;;4955619;29;20478;-56
2023/09/11 14:09:27;;;;;;;1.13;0.90;;;;;;;;;;4954881;29;20082;-56
2023/09/11 14:11:54;;;;;;;2.57;1.57;;;;;;;;;;4955460;29;20054;-56
2023/09/11 14:14:21;;;;;;;3.97;1.47;;;;;;;;;;4955199;29;20027;-56
2023/09/11 14:16:47;;;;;;;2.17;1.50;;;;;;;;;;4955065;29;20074;-56
2023/09/11 14:19:14;;;;;;;1.47;1.23;;;;;;;;;;4950106;29;20035;-56
2023/09/11 14:21:40;;;;;;;1.40;1.00;;;;;;;;;;4949874;29;20031;-56
2023/09/11 14:24:07;;;;;;;2.30;1.17;;;;;;;;;;4950073;29;20035;-57
2023/09/11 14:26:34;;;;;;;2.17;1.40;;;;;;;;;;4950177;29;20086;-55
2023/09/11 14:29:00;;;;;;;2.20;1.20;;;;;;;;;;4954795;28;20050;-56
2023/09/11 14:31:27;;;;;;;1.10;0.90;;;;;;;;;;4955150;29;20031;-56
2023/09/11 14:33:54;;;;;;;1.13;1.03;;;;;;;;;;4954373;28;20027;-56
2023/09/11 14:36:21;;;;;;;2.63;1.70;;;;;;;;;;4955066;29;20027;-56
2023/09/11 14:38:47;;;;;;;2.10;1.53;;;;;;;;;;4954116;28;20023;-56
2023/09/11 14:41:14;;;;;;;10.30;2.20;;;;;;;;;;4949337;29;20543;-56
2023/09/11 14:43:41;;;;;;;5.03;2.13;;;;;;;;;;4949270;29;20085;-57
2023/09/11 14:46:07;;;;;;;2.73;1.93;;;;;;;;;;4949669;29;20541;-57